Time;durP1;ratioP1;P1;durP2;ratioP2;P2;SDS_P1;SDS_P2;PMS_P1;PMS_P2;Temp;Humidity;BMP_temperature;BMP_pressure;BME280_temperature;BME280_humidity;BME280_pressure;Samples;Min_cycle;Max_cycle;Signal;HPM_P1;HPM_P2
2021/11/13 00:02:12;;;;;;;0.90;0.90;;;2.30;99.90;;;;;;5091322;28;20424;-70
2021/11/13 00:04:38;;;;;;;0.40;0.40;;;2.10;99.90;;;;;;5103122;28;20450;-70
2021/11/13 00:07:04;;;;;;;0.40;0.20;;;2.10;99.90;;;;;;5103393;28;20468;-69
2021/11/13 00:09:29;;;;;;;0.80;0.80;;;2.10;99.90;;;;;;5092706;28;20382;-71
2021/11/13 00:11:57;;;;;;;0.40;0.20;;;2.00;99.90;;;;;;5091944;28;20723;-70
2021/11/13 00:14:23;;;;;;;0.40;0.30;;;2.00;99.90;;;;;;5091450;28;20390;-71
2021/11/13 00:16:49;;;;;;;0.40;0.20;;;1.90;99.90;;;;;;5086803;28;20464;-71
2021/11/13 00:19:15;;;;;;;0.50;0.40;;;1.90;99.90;;;;;;5106622;28;20831;-71
2021/11/13 00:21:42;;;;;;;0.40;0.30;;;2.00;99.90;;;;;;5091048;28;20439;-71
2021/11/13 00:24:08;;;;;;;0.40;0.30;;;2.10;99.90;;;;;;5087477;28;20461;-70
2021/11/13 00:26:34;;;;;;;0.90;0.50;;;2.10;99.90;;;;;;5080811;28;20483;-71
2021/11/13 00:29:00;;;;;;;0.40;0.40;;;1.90;99.90;;;;;;5092542;28;20866;-70
2021/11/13 00:31:26;;;;;;;0.40;0.28;;;1.90;99.90;;;;;;5107634;28;20408;-71
2021/11/13 00:33:51;;;;;;;0.40;0.30;;;1.80;99.90;;;;;;5094861;28;20840;-71
2021/11/13 00:36:17;;;;;;;0.40;0.20;;;1.80;99.90;;;;;;5103703;28;20829;-71
2021/11/13 00:38:43;;;;;;;0.40;0.30;;;1.80;99.90;;;;;;5102244;28;20399;-71
2021/11/13 00:41:08;;;;;;;0.40;0.40;;;1.80;99.90;;;;;;5096035;28;20878;-71
2021/11/13 00:43:34;;;;;;;0.40;0.30;;;1.90;99.90;;;;;;5107239;28;20380;-71
2021/11/13 00:45:59;;;;;;;2.40;1.50;;;2.10;99.90;;;;;;5096464;28;20412;-71
2021/11/13 00:48:25;;;;;;;0.40;0.23;;;2.10;99.90;;;;;;5106237;28;20380;-71
2021/11/13 00:50:51;;;;;;;2.20;0.70;;;2.00;99.90;;;;;;5097530;27;20406;-71
2021/11/13 00:53:18;;;;;;;0.40;0.28;;;1.90;99.90;;;;;;5107593;28;20391;-70
2021/11/13 00:55:44;;;;;;;0.40;0.20;;;1.90;99.90;;;;;;5093685;28;20409;-71
2021/11/13 00:58:10;;;;;;;0.40;0.30;;;1.80;99.90;;;;;;5104468;28;20382;-71
2021/11/13 01:00:36;;;;;;;1.10;0.60;;;1.90;99.90;;;;;;5100647;28;20876;-71
2021/11/13 01:03:02;;;;;;;0.40;0.23;;;1.90;99.90;;;;;;5097320;28;20469;-71
2021/11/13 01:05:29;;;;;;;0.50;0.50;;;2.00;99.90;;;;;;5107245;28;20744;-71
2021/11/13 01:07:55;;;;;;;0.40;0.40;;;1.90;99.90;;;;;;5095613;28;20385;-70
2021/11/13 01:10:21;;;;;;;0.40;0.20;;;1.80;99.90;;;;;;5101268;28;20743;-71
2021/11/13 01:12:48;;;;;;;0.40;0.40;;;1.80;99.90;;;;;;5102048;28;20441;-71
2021/11/13 01:15:16;;;;;;;0.40;0.20;;;1.70;99.90;;;;;;5095355;28;20441;-71
2021/11/13 01:17:42;;;;;;;0.40;0.30;;;1.80;99.90;;;;;;5106533;28;20390;-71
2021/11/13 01:20:10;;;;;;;0.40;0.20;;;1.90;99.90;;;;;;5097482;28;20719;-71
2021/11/13 01:22:36;;;;;;;0.40;0.30;;;1.90;99.90;;;;;;5099489;28;20378;-71
2021/11/13 01:25:03;;;;;;;0.40;0.20;;;1.90;99.90;;;;;;5104612;28;20387;-71
2021/11/13 01:27:28;;;;;;;0.40;0.40;;;1.90;99.90;;;;;;5093888;28;20538;-71
2021/11/13 01:29:54;;;;;;;0.40;0.20;;;1.90;99.90;;;;;;5105405;28;20456;-71
2021/11/13 01:32:22;;;;;;;0.40;0.40;;;1.90;99.90;;;;;;5098278;28;20385;-71
2021/11/13 01:34:48;;;;;;;0.70;0.70;;;1.90;99.90;;;;;;5097721;28;20386;-71
2021/11/13 01:37:14;;;;;;;0.40;0.30;;;1.80;99.90;;;;;;5106248;28;20391;-71
2021/11/13 01:39:40;;;;;;;0.40;0.20;;;1.90;99.90;;;;;;5093002;28;20401;-71
2021/11/13 01:42:06;;;;;;;0.40;0.20;;;2.00;99.90;;;;;;5104058;28;20385;-70
2021/11/13 01:44:32;;;;;;;0.40;0.30;;;2.00;99.90;;;;;;5099629;28;20783;-71
2021/11/13 01:46:58;;;;;;;0.40;0.20;;;2.20;99.90;;;;;;5097235;28;20390;-70
2021/11/13 01:49:24;;;;;;;1.30;1.20;;;2.10;99.90;;;;;;5106947;28;20434;-70
2021/11/13 01:51:50;;;;;;;0.60;0.50;;;2.10;99.90;;;;;;5091816;28;20688;-70
2021/11/13 01:54:18;;;;;;;0.40;0.20;;;1.90;99.90;;;;;;5103346;28;20377;-70
2021/11/13 01:56:43;;;;;;;0.40;0.28;;;1.90;99.90;;;;;;5100459;28;20403;-70
2021/11/13 01:59:10;;;;;;;5.10;0.90;;;2.00;99.90;;;;;;5094116;28;20402;-70
2021/11/13 02:01:37;;;;;;;0.40;0.30;;;2.00;99.90;;;;;;5106016;28;20863;-70
2021/11/13 02:04:04;;;;;;;0.50;0.50;;;1.90;99.90;;;;;;5094616;28;20756;-70
2021/11/13 02:06:31;;;;;;;0.40;0.20;;;2.20;99.90;;;;;;5100453;28;20885;-70
2021/11/13 02:08:57;;;;;;;0.40;0.22;;;2.00;99.90;;;;;;5103125;28;20479;-70
2021/11/13 02:11:26;;;;;;;4.50;0.90;;;1.80;99.90;;;;;;5093258;28;20469;-70
2021/11/13 02:13:54;;;;;;;0.40;0.40;;;1.90;99.90;;;;;;5105017;28;20607;-71
2021/11/13 02:16:20;;;;;;;0.70;0.70;;;1.90;99.90;;;;;;5098089;28;20408;-71
2021/11/13 02:18:46;;;;;;;0.40;0.20;;;1.90;99.90;;;;;;5097451;28;20390;-71
2021/11/13 02:21:12;;;;;;;0.40;0.30;;;2.00;99.90;;;;;;5099541;28;20760;-71
2021/11/13 02:23:39;;;;;;;0.40;0.20;;;2.00;99.90;;;;;;5084512;28;20387;-71
2021/11/13 02:26:05;;;;;;;0.40;0.20;;;2.10;99.90;;;;;;5104506;28;20461;-71
2021/11/13 02:28:35;;;;;;;0.60;0.60;;;2.20;99.90;;;;;;5095129;28;20397;-71
2021/11/13 02:31:04;;;;;;;0.40;0.20;;;2.20;99.90;;;;;;5097936;28;20878;-71
2021/11/13 02:33:31;;;;;;;0.50;0.50;;;2.20;99.90;;;;;;5105537;28;20407;-70
2021/11/13 02:35:57;;;;;;;0.60;0.60;;;2.20;99.90;;;;;;5089767;28;20410;-71
2021/11/13 02:38:30;;;;;;;0.40;0.20;;;2.30;99.90;;;;;;5096721;28;20446;-71
2021/11/13 02:40:58;;;;;;;0.40;0.30;;;2.20;99.90;;;;;;5098177;28;20378;-71
2021/11/13 02:43:27;;;;;;;0.40;0.20;;;2.20;99.90;;;;;;5103795;28;20737;-71
2021/11/13 02:45:55;;;;;;;0.40;0.20;;;2.00;99.90;;;;;;5092256;28;20457;-71
2021/11/13 02:48:25;;;;;;;0.40;0.30;;;2.10;99.90;;;;;;5104001;28;20375;-70
2021/11/13 02:50:52;;;;;;;0.40;0.30;;;2.00;99.90;;;;;;5087377;28;20426;-70
2021/11/13 02:53:20;;;;;;;0.40;0.20;;;1.90;99.90;;;;;;5091347;28;20381;-71
2021/11/13 02:55:47;;;;;;;0.40;0.30;;;1.90;99.90;;;;;;5093147;28;20543;-70
2021/11/13 02:58:13;;;;;;;0.40;0.20;;;1.80;99.90;;;;;;5093498;28;20397;-70
2021/11/13 03:00:40;;;;;;;0.40;0.30;;;1.70;99.90;;;;;;5093531;28;20382;-71
2021/11/13 03:03:05;;;;;;;1.13;1.02;;;1.80;99.90;;;;;;5093419;28;20378;-71
2021/11/13 03:05:36;;;;;;;0.40;0.30;;;1.80;99.90;;;;;;5093882;28;20723;-71
2021/11/13 03:08:06;;;;;;;0.40;0.20;;;1.90;99.90;;;;;;5093428;28;20382;-70
2021/11/13 03:10:34;;;;;;;0.40;0.20;;;1.90;99.90;;;;;;5093798;28;20397;-70
2021/11/13 03:13:01;;;;;;;0.40;0.20;;;1.70;99.90;;;;;;5093336;28;20486;-70
2021/11/13 03:15:27;;;;;;;0.40;0.20;;;1.70;99.90;;;;;;5101751;28;20412;-70
2021/11/13 03:17:56;;;;;;;0.40;0.20;;;1.70;99.90;;;;;;5107123;28;20390;-70
2021/11/13 03:20:28;;;;;;;0.40;0.22;;;1.60;99.90;;;;;;5096363;28;20378;-70
2021/11/13 03:22:59;;;;;;;0.40;0.20;;;1.60;99.90;;;;;;5105582;28;20430;-69
2021/11/13 03:25:34;;;;;;;0.40;0.20;;;1.70;99.90;;;;;;5103753;28;20391;-70
2021/11/13 03:28:04;;;;;;;0.40;0.20;;;1.60;99.90;;;;;;5096231;28;20463;-70
2021/11/13 03:30:30;;;;;;;0.40;0.20;;;1.70;99.90;;;;;;5109542;28;20377;-71
2021/11/13 03:32:56;;;;;;;0.40;0.20;;;1.80;99.90;;;;;;5098303;28;21057;-71
2021/11/13 03:35:30;;;;;;;0.40;0.20;;;1.70;99.90;;;;;;5102331;28;20583;-70
2021/11/13 03:38:00;;;;;;;0.40;0.20;;;1.60;99.90;;;;;;5091903;28;21020;-71
2021/11/13 03:40:26;;;;;;;0.40;0.20;;;1.60;99.90;;;;;;5092788;28;20793;-70
2021/11/13 03:42:52;;;;;;;0.40;0.20;;;1.70;99.90;;;;;;5091794;28;20393;-70
2021/11/13 03:45:18;;;;;;;0.40;0.30;;;1.70;99.90;;;;;;5092941;28;20381;-71
2021/11/13 03:47:44;;;;;;;0.40;0.30;;;1.80;99.90;;;;;;5090320;28;20386;-71
2021/11/13 03:50:09;;;;;;;0.40;0.20;;;1.80;99.90;;;;;;5091893;28;20393;-71
2021/11/13 03:52:35;;;;;;;0.40;0.20;;;1.90;99.90;;;;;;5091881;28;20447;-71
2021/11/13 03:55:01;;;;;;;0.40;0.20;;;1.90;99.90;;;;;;5091808;28;20401;-71
2021/11/13 03:57:26;;;;;;;0.40;0.20;;;1.90;99.90;;;;;;5092411;28;20719;-71
2021/11/13 03:59:54;;;;;;;0.40;0.40;;;1.90;99.90;;;;;;5091510;28;20371;-71
2021/11/13 04:02:21;;;;;;;0.40;0.20;;;1.90;99.90;;;;;;5092239;28;20384;-71
2021/11/13 04:04:46;;;;;;;0.40;0.20;;;2.10;99.90;;;;;;5090110;28;20879;-71
2021/11/13 04:07:12;;;;;;;0.40;0.30;;;2.10;99.90;;;;;;5092232;28;20508;-71
2021/11/13 04:09:39;;;;;;;0.40;0.30;;;2.00;99.90;;;;;;5091453;28;20393;-71
2021/11/13 04:12:06;;;;;;;0.65;0.65;;;2.00;99.90;;;;;;5091872;28;20371;-71
2021/11/13 04:14:34;;;;;;;0.40;0.20;;;2.10;99.90;;;;;;5092212;28;20388;-71
2021/11/13 04:17:00;;;;;;;0.40;0.20;;;2.00;99.90;;;;;;5090896;28;21014;-71
2021/11/13 04:19:26;;;;;;;0.40;0.22;;;2.10;99.90;;;;;;5091942;28;20382;-71
2021/11/13 04:21:52;;;;;;;0.40;0.20;;;2.30;99.90;;;;;;5091044;28;20439;-71
2021/11/13 04:24:18;;;;;;;0.40;0.20;;;2.40;99.90;;;;;;5091910;28;20500;-71
2021/11/13 04:26:43;;;;;;;0.40;0.20;;;2.40;99.90;;;;;;5091022;28;20457;-71
2021/11/13 04:29:09;;;;;;;0.40;0.30;;;2.60;99.90;;;;;;5091590;28;20389;-71
2021/11/13 04:31:35;;;;;;;0.40;0.30;;;2.60;99.90;;;;;;5091455;28;20457;-71
2021/11/13 04:34:02;;;;;;;0.40;0.30;;;2.60;99.90;;;;;;5072460;28;20386;-70
2021/11/13 04:36:37;;;;;;;0.40;0.20;;;2.60;99.90;;;;;;5091527;28;20410;-70
2021/11/13 04:39:06;;;;;;;0.40;0.20;;;2.80;99.90;;;;;;5090913;28;20397;-70
2021/11/13 04:41:32;;;;;;;0.40;0.20;;;2.80;99.90;;;;;;5091572;28;20374;-70
2021/11/13 04:43:58;;;;;;;0.40;0.20;;;2.90;99.90;;;;;;5090476;28;20460;-74
2021/11/13 04:46:24;;;;;;;0.40;0.20;;;2.80;99.90;;;;;;5091172;28;20859;-72
2021/11/13 04:48:50;;;;;;;1.00;0.90;;;2.90;99.90;;;;;;5090063;28;20885;-72
2021/11/13 04:51:15;;;;;;;0.40;0.20;;;3.10;99.90;;;;;;5091007;28;20943;-70
2021/11/13 04:53:41;;;;;;;0.47;0.45;;;3.20;99.90;;;;;;5090556;28;20379;-70
2021/11/13 04:56:07;;;;;;;0.40;0.20;;;3.10;99.90;;;;;;5091295;28;20402;-70
2021/11/13 04:58:33;;;;;;;0.40;0.20;;;3.10;99.90;;;;;;5090474;28;20389;-70
2021/11/13 05:00:59;;;;;;;0.40;0.20;;;3.00;99.90;;;;;;5090372;28;20405;-70
2021/11/13 05:03:25;;;;;;;0.40;0.20;;;3.00;99.90;;;;;;5091441;28;20374;-70
2021/11/13 05:05:50;;;;;;;0.40;0.20;;;3.00;99.90;;;;;;5090624;28;20456;-70
2021/11/13 05:08:16;;;;;;;0.40;0.20;;;2.90;99.90;;;;;;5091031;28;20854;-70
2021/11/13 05:10:43;;;;;;;0.40;0.30;;;2.90;99.90;;;;;;5090923;28;20385;-71
2021/11/13 05:13:09;;;;;;;0.40;0.20;;;2.80;99.90;;;;;;5090722;28;20386;-71
2021/11/13 05:15:35;;;;;;;0.40;0.20;;;2.90;99.90;;;;;;5087528;28;21556;-71
2021/11/13 05:18:01;;;;;;;0.50;0.50;;;3.00;99.90;;;;;;5075864;28;20477;-70
2021/11/13 05:20:26;;;;;;;0.40;0.20;;;2.90;99.90;;;;;;5072558;28;20376;-71
2021/11/13 05:22:52;;;;;;;0.40;0.30;;;2.80;99.90;;;;;;5083387;28;20439;-71
2021/11/13 05:25:21;;;;;;;0.40;0.20;;;2.90;99.90;;;;;;5091025;28;20806;-70
2021/11/13 05:27:48;;;;;;;0.40;0.20;;;2.90;99.90;;;;;;5090271;28;20382;-70
2021/11/13 05:30:15;;;;;;;0.40;0.20;;;3.00;99.90;;;;;;5090920;28;20452;-71
2021/11/13 05:32:42;;;;;;;0.40;0.20;;;3.00;99.90;;;;;;5090150;28;20385;-70
2021/11/13 05:35:09;;;;;;;0.40;0.40;;;3.10;99.90;;;;;;5088657;28;20515;-70
2021/11/13 05:37:34;;;;;;;0.40;0.20;;;3.10;99.90;;;;;;5090968;28;20396;-71
2021/11/13 05:40:00;;;;;;;0.40;0.20;;;3.30;99.90;;;;;;5090044;28;20457;-71
2021/11/13 05:42:26;;;;;;;0.40;0.20;;;3.30;99.90;;;;;;5090645;28;20392;-70
2021/11/13 05:44:52;;;;;;;0.40;0.27;;;3.40;99.90;;;;;;5089802;28;20913;-71
2021/11/13 05:47:17;;;;;;;0.40;0.20;;;3.60;99.90;;;;;;5090564;28;20378;-71
2021/11/13 05:49:43;;;;;;;0.40;0.30;;;3.70;99.90;;;;;;5090558;28;20462;-71
2021/11/13 05:52:09;;;;;;;0.40;0.30;;;3.80;99.90;;;;;;5090134;28;20665;-71
2021/11/13 05:54:34;;;;;;;0.40;0.30;;;3.80;99.90;;;;;;5090569;28;20918;-70
2021/11/13 05:57:00;;;;;;;0.40;0.20;;;3.70;99.90;;;;;;5089729;28;20743;-70
2021/11/13 05:59:26;;;;;;;0.40;0.30;;;3.60;99.90;;;;;;5089902;28;20738;-70
2021/11/13 06:01:51;;;;;;;0.40;0.30;;;3.70;99.90;;;;;;5089606;28;20374;-71
2021/11/13 06:04:17;;;;;;;0.40;0.20;;;3.50;99.90;;;;;;5090422;28;20390;-71
2021/11/13 06:06:42;;;;;;;0.40;0.20;;;3.70;99.90;;;;;;5089344;28;20382;-70
2021/11/13 06:09:08;;;;;;;0.40;0.20;;;3.60;99.90;;;;;;5089194;28;20393;-72
2021/11/13 06:11:34;;;;;;;0.40;0.20;;;3.60;99.90;;;;;;5090609;28;20378;-72
2021/11/13 06:13:59;;;;;;;0.40;0.20;;;3.40;99.90;;;;;;5088975;28;20461;-72
2021/11/13 06:16:25;;;;;;;0.40;0.20;;;3.50;99.90;;;;;;5090073;28;20406;-72
2021/11/13 06:18:51;;;;;;;0.73;0.73;;;3.70;99.90;;;;;;5089351;28;20473;-72
2021/11/13 06:21:16;;;;;;;0.40;0.20;;;3.80;99.90;;;;;;5090094;28;20406;-72
2021/11/13 06:23:46;;;;;;;0.40;0.20;;;3.70;99.90;;;;;;5089898;28;20435;-72
2021/11/13 06:26:13;;;;;;;0.40;0.20;;;3.90;99.90;;;;;;5090297;28;20715;-72
2021/11/13 06:28:40;;;;;;;0.50;0.50;;;3.70;99.90;;;;;;5092044;28;20787;-72
2021/11/13 06:31:05;;;;;;;0.40;0.20;;;3.60;99.90;;;;;;5093373;28;20430;-72
2021/11/13 06:33:31;;;;;;;0.40;0.40;;;3.50;99.90;;;;;;5093976;28;20446;-70
2021/11/13 06:35:57;;;;;;;0.40;0.20;;;3.60;99.90;;;;;;5092838;28;20410;-72
2021/11/13 06:38:23;;;;;;;0.50;0.40;;;3.50;99.90;;;;;;5093765;28;20411;-72
2021/11/13 06:40:49;;;;;;;0.40;0.20;;;3.50;99.90;;;;;;5093256;28;20386;-72
2021/11/13 06:43:17;;;;;;;0.40;0.20;;;3.60;99.90;;;;;;5094179;28;20381;-72
2021/11/13 06:45:43;;;;;;;0.40;0.28;;;3.60;99.90;;;;;;5093644;28;20390;-71
2021/11/13 06:48:09;;;;;;;1.20;1.10;;;3.80;99.90;;;;;;5092920;28;20374;-70
2021/11/13 06:50:35;;;;;;;0.40;0.30;;;3.80;99.90;;;;;;5093055;28;20412;-71
2021/11/13 06:53:02;;;;;;;0.40;0.20;;;3.70;99.90;;;;;;5093040;28;20847;-71
2021/11/13 06:55:28;;;;;;;0.40;0.20;;;3.80;99.90;;;;;;5093533;28;20781;-71
2021/11/13 06:57:53;;;;;;;0.40;0.20;;;3.80;99.90;;;;;;5091425;28;20390;-71
2021/11/13 07:00:20;;;;;;;0.50;0.40;;;3.80;99.90;;;;;;5092255;28;20447;-70
2021/11/13 07:02:46;;;;;;;0.40;0.20;;;3.90;99.90;;;;;;5093513;28;20385;-70
2021/11/13 07:05:12;;;;;;;0.40;0.30;;;3.90;99.90;;;;;;5092349;28;20406;-71
2021/11/13 07:07:38;;;;;;;0.55;0.55;;;3.90;99.90;;;;;;5093492;28;20382;-70
2021/11/13 07:10:08;;;;;;;0.50;0.50;;;4.10;99.90;;;;;;5092061;28;20390;-71
2021/11/13 07:12:33;;;;;;;0.40;0.20;;;4.20;99.90;;;;;;5093274;28;20385;-72
2021/11/13 07:14:59;;;;;;;0.40;0.20;;;4.30;99.90;;;;;;5092185;28;20461;-72
2021/11/13 07:17:25;;;;;;;0.40;0.20;;;4.30;99.90;;;;;;5082672;28;20790;-72
2021/11/13 07:19:51;;;;;;;0.40;0.20;;;4.40;99.90;;;;;;5083227;28;20856;-72
2021/11/13 07:22:17;;;;;;;0.40;0.20;;;4.50;99.90;;;;;;5117131;27;20387;-72
2021/11/13 07:24:44;;;;;;;0.40;0.20;;;4.50;99.90;;;;;;5093039;28;20381;-71
2021/11/13 07:27:10;;;;;;;0.40;0.30;;;4.60;99.90;;;;;;5092062;28;20443;-73
2021/11/13 07:30:19;;;;;;;0.40;0.35;;;4.50;99.90;;;;;;5081418;28;20401;-72
2021/11/13 07:32:25;;;;;;;0.40;0.30;;;4.60;99.90;;;;;;5075221;28;20386;-72
2021/11/13 07:34:51;;;;;;;1.20;1.10;;;4.60;99.90;;;;;;5077833;28;20412;-72
2021/11/13 07:37:24;;;;;;;0.80;0.50;;;4.60;99.90;;;;;;5079194;28;20898;-72
2021/11/13 07:39:52;;;;;;;0.40;0.20;;;4.60;99.90;;;;;;5076842;28;20926;-72
2021/11/13 07:42:18;;;;;;;0.40;0.30;;;4.70;99.90;;;;;;5077547;28;20404;-72
2021/11/13 07:44:44;;;;;;;0.70;0.70;;;4.60;99.90;;;;;;5079249;28;20382;-71
2021/11/13 07:47:09;;;;;;;0.40;0.20;;;4.60;99.90;;;;;;5078907;28;20394;-72
2021/11/13 07:49:35;;;;;;;0.40;0.20;;;4.60;99.90;;;;;;5075942;28;20468;-72
2021/11/13 07:52:02;;;;;;;0.40;0.20;;;4.60;99.90;;;;;;5078513;28;20406;-72
2021/11/13 07:54:27;;;;;;;0.40;0.20;;;4.70;99.90;;;;;;5079370;28;20444;-72
2021/11/13 07:56:53;;;;;;;0.40;0.30;;;4.80;99.90;;;;;;5078803;28;20410;-72
2021/11/13 07:59:19;;;;;;;0.40;0.20;;;4.80;99.90;;;;;;5076757;28;20393;-72
2021/11/13 08:01:44;;;;;;;0.40;0.20;;;4.80;99.90;;;;;;5078943;28;20393;-71
2021/11/13 08:04:11;;;;;;;0.40;0.30;;;4.70;99.90;;;;;;5078170;28;20953;-72
2021/11/13 08:06:37;;;;;;;0.40;0.20;;;4.80;99.90;;;;;;5078324;28;20500;-72
2021/11/13 08:09:03;;;;;;;0.60;0.60;;;4.90;99.90;;;;;;5075280;28;20463;-72
2021/11/13 08:11:29;;;;;;;0.80;0.80;;;4.90;99.90;;;;;;5075669;28;20962;-72
2021/11/13 08:13:55;;;;;;;0.40;0.20;;;5.10;99.90;;;;;;5078572;28;20389;-72
2021/11/13 08:16:21;;;;;;;0.40;0.20;;;5.20;99.90;;;;;;5078752;28;20412;-72
2021/11/13 08:18:46;;;;;;;0.40;0.20;;;5.30;99.90;;;;;;5076970;28;20390;-72
2021/11/13 08:21:12;;;;;;;0.40;0.20;;;5.50;99.90;;;;;;5077269;28;20907;-72
2021/11/13 08:23:38;;;;;;;0.40;0.20;;;5.50;99.90;;;;;;5078079;28;21209;-72
2021/11/13 08:26:05;;;;;;;0.40;0.30;;;5.60;99.90;;;;;;5077605;28;20948;-72
2021/11/13 08:28:30;;;;;;;0.40;0.20;;;5.70;99.90;;;;;;5076644;28;20884;-72
2021/11/13 08:30:56;;;;;;;0.40;0.20;;;5.60;99.90;;;;;;5078161;28;20389;-71
2021/11/13 08:33:23;;;;;;;0.80;0.60;;;5.60;99.90;;;;;;5078210;28;20400;-72
2021/11/13 08:35:49;;;;;;;0.40;0.20;;;5.70;99.90;;;;;;5077858;28;20436;-71
2021/11/13 08:38:20;;;;;;;0.40;0.20;;;5.80;99.90;;;;;;5076867;28;20394;-72
2021/11/13 08:40:46;;;;;;;0.40;0.20;;;5.90;99.90;;;;;;5076408;28;20382;-72
2021/11/13 08:43:13;;;;;;;0.40;0.20;;;5.90;99.90;;;;;;5077355;28;20386;-72
2021/11/13 08:45:39;;;;;;;0.40;0.20;;;5.90;99.90;;;;;;5077725;28;20833;-72
2021/11/13 08:48:08;;;;;;;0.50;0.50;;;5.90;99.90;;;;;;5077619;28;20386;-71
2021/11/13 08:50:34;;;;;;;0.40;0.20;;;6.00;99.90;;;;;;5076346;28;20386;-72
2021/11/13 08:53:01;;;;;;;0.40;0.20;;;6.00;99.90;;;;;;5077874;28;20400;-72
2021/11/13 08:55:31;;;;;;;0.40;0.20;;;5.90;99.90;;;;;;5091180;28;20408;-72
2021/11/13 08:57:58;;;;;;;0.50;0.40;;;5.90;99.90;;;;;;5101040;28;20377;-72
2021/11/13 09:01:05;;;;;;;0.40;0.20;;;6.00;99.90;;;;;;5105585;28;20729;-72
2021/11/13 09:03:37;;;;;;;0.40;0.20;;;6.00;99.90;;;;;;5015911;28;20399;-72
2021/11/13 09:06:08;;;;;;;0.40;0.30;;;5.90;99.90;;;;;;5091148;28;20786;-73
2021/11/13 09:08:36;;;;;;;0.40;0.28;;;5.90;99.90;;;;;;5101616;28;20378;-72
2021/11/13 09:11:02;;;;;;;0.40;0.30;;;5.90;99.90;;;;;;5107935;28;20510;-72
2021/11/13 09:13:29;;;;;;;0.40;0.20;;;6.00;99.90;;;;;;5094387;28;20430;-72
2021/11/13 09:15:57;;;;;;;0.50;0.40;;;5.90;99.90;;;;;;5106471;28;20402;-72
2021/11/13 09:18:23;;;;;;;0.80;0.60;;;6.00;99.90;;;;;;5099335;28;20391;-72
2021/11/13 09:20:49;;;;;;;0.40;0.40;;;6.10;99.90;;;;;;5099626;28;20421;-72
2021/11/13 09:23:15;;;;;;;0.40;0.20;;;6.20;99.90;;;;;;5096616;28;20970;-72
2021/11/13 09:25:45;;;;;;;0.40;0.20;;;6.10;99.90;;;;;;5105476;28;20510;-72
2021/11/13 09:28:11;;;;;;;1.20;0.80;;;6.10;99.90;;;;;;5095064;28;20799;-72
2021/11/13 09:30:38;;;;;;;0.40;0.30;;;6.20;99.90;;;;;;5107683;28;20462;-70
2021/11/13 09:33:06;;;;;;;1.60;0.70;;;6.20;99.90;;;;;;5096919;28;20414;-70
2021/11/13 09:35:32;;;;;;;0.40;0.30;;;6.30;99.90;;;;;;5099396;28;20449;-71
2021/11/13 09:37:58;;;;;;;0.40;0.30;;;6.20;99.90;;;;;;5091642;28;20389;-71
2021/11/13 09:40:30;;;;;;;0.55;0.55;;;6.40;99.90;;;;;;5104109;28;20373;-71
2021/11/13 09:43:00;;;;;;;0.40;0.20;;;6.50;99.90;;;;;;5088112;28;20511;-72
2021/11/13 09:45:27;;;;;;;0.40;0.30;;;6.40;99.90;;;;;;5098680;28;20449;-71
2021/11/13 09:47:55;;;;;;;0.40;0.30;;;6.40;99.90;;;;;;5092989;28;20875;-71
2021/11/13 09:50:25;;;;;;;0.40;0.30;;;6.50;99.90;;;;;;5107473;28;20455;-71
2021/11/13 09:52:51;;;;;;;0.50;0.50;;;6.50;99.90;;;;;;5091482;28;20822;-71
2021/11/13 09:55:20;;;;;;;4.10;1.00;;;6.60;99.90;;;;;;5097387;28;20415;-70
2021/11/13 09:57:46;;;;;;;0.70;0.70;;;6.60;99.90;;;;;;5110823;28;20377;-71
2021/11/13 10:00:16;;;;;;;0.40;0.20;;;6.60;99.90;;;;;;5094922;28;20378;-71
2021/11/13 10:02:42;;;;;;;0.40;0.30;;;6.70;99.90;;;;;;5099975;28;20948;-73
2021/11/13 10:05:10;;;;;;;0.40;0.30;;;6.70;99.90;;;;;;5108250;28;20489;-72
2021/11/13 10:07:36;;;;;;;0.40;0.40;;;6.70;99.90;;;;;;5095046;28;20378;-71
2021/11/13 10:10:06;;;;;;;0.40;0.30;;;6.80;99.90;;;;;;5098102;28;20411;-71
2021/11/13 10:12:41;;;;;;;0.40;0.20;;;6.80;99.90;;;;;;5106775;28;20851;-72
2021/11/13 10:15:25;;;;;;;0.40;0.30;;;6.90;99.90;;;;;;5104204;28;20516;-71
2021/11/13 10:18:17;;;;;;;0.40;0.30;;;6.90;99.90;;;;;;5103250;28;20384;-71
2021/11/13 10:20:58;;;;;;;0.60;0.40;;;7.00;99.90;;;;;;5107283;28;20402;-71
2021/11/13 10:23:27;;;;;;;0.40;0.30;;;7.10;99.90;;;;;;5105280;28;20366;-71
2021/11/13 10:26:01;;;;;;;0.40;0.20;;;7.20;99.90;;;;;;5103145;28;20407;-72
2021/11/13 10:28:28;;;;;;;0.40;0.20;;;7.20;99.90;;;;;;5098408;28;20388;-72
2021/11/13 10:31:15;;;;;;;0.40;0.30;;;7.30;99.90;;;;;;5105236;28;20437;-71
2021/11/13 10:33:41;;;;;;;0.40;0.30;;;7.40;99.90;;;;;;5096865;28;20382;-71
2021/11/13 10:36:09;;;;;;;0.40;0.22;;;7.70;99.90;;;;;;5093674;28;20413;-71
2021/11/13 10:38:35;;;;;;;0.40;0.30;;;8.30;99.90;;;;;;5102255;28;20387;-71
2021/11/13 10:41:08;;;;;;;0.50;0.50;;;8.90;99.90;;;;;;5102740;28;20374;-71
2021/11/13 10:43:54;;;;;;;1.00;0.40;;;9.40;99.90;;;;;;5102359;28;20915;-70
2021/11/13 10:46:23;;;;;;;0.40;0.30;;;9.90;99.90;;;;;;5090520;28;20394;-71
2021/11/13 10:48:52;;;;;;;0.40;0.40;;;10.20;99.90;;;;;;5093555;28;20580;-71
2021/11/13 10:51:28;;;;;;;0.40;0.20;;;10.40;99.90;;;;;;5087399;28;20434;-72
2021/11/13 10:53:54;;;;;;;0.40;0.30;;;10.50;99.90;;;;;;5093416;28;20795;-69
2021/11/13 10:56:25;;;;;;;0.40;0.30;;;10.70;99.90;;;;;;5092567;28;20453;-69
2021/11/13 10:58:58;;;;;;;0.40;0.30;;;10.80;99.90;;;;;;5091056;28;20746;-72
2021/11/13 11:01:24;;;;;;;0.40;0.30;;;10.60;99.90;;;;;;5093212;28;20381;-72
2021/11/13 11:03:52;;;;;;;0.40;0.30;;;10.60;99.90;;;;;;5093495;28;20455;-71
2021/11/13 11:06:38;;;;;;;0.50;0.50;;;10.50;99.90;;;;;;5090136;28;20456;-72
2021/11/13 11:09:25;;;;;;;0.40;0.20;;;10.50;99.90;;;;;;5092221;28;20393;-72
2021/11/13 11:11:57;;;;;;;0.40;0.30;;;10.30;99.90;;;;;;5094065;28;20411;-72
2021/11/13 11:14:27;;;;;;;0.40;0.30;;;10.30;99.90;;;;;;5110143;28;20681;-71
2021/11/13 11:17:00;;;;;;;0.40;0.40;;;10.30;99.90;;;;;;5113407;28;20396;-72
2021/11/13 11:19:31;;;;;;;0.90;0.80;;;10.10;99.90;;;;;;5113834;28;20381;-71
2021/11/13 11:22:08;;;;;;;0.40;0.20;;;10.20;99.90;;;;;;5113642;28;20368;-69
2021/11/13 11:24:58;;;;;;;0.40;0.30;;;10.20;99.90;;;;;;5100813;28;20386;-71
2021/11/13 11:27:35;;;;;;;0.60;0.60;;;10.20;99.90;;;;;;5092448;28;20421;-70
2021/11/13 11:30:09;;;;;;;0.40;0.30;;;10.40;99.90;;;;;;5092572;28;20378;-70
2021/11/13 11:32:49;;;;;;;1.80;1.50;;;10.40;99.90;;;;;;5093165;28;20431;-71
2021/11/13 11:35:22;;;;;;;0.40;0.30;;;10.50;99.90;;;;;;5090743;28;20477;-71
2021/11/13 11:38:12;;;;;;;0.40;0.30;;;10.40;99.90;;;;;;5092791;28;20424;-72
2021/11/13 11:40:43;;;;;;;0.50;0.50;;;10.50;99.90;;;;;;5092949;28;20405;-72
2021/11/13 11:43:12;;;;;;;0.90;0.90;;;10.50;99.90;;;;;;5087267;28;20477;-72
2021/11/13 11:45:41;;;;;;;0.60;0.60;;;10.50;99.90;;;;;;5079557;28;20384;-72
2021/11/13 11:48:11;;;;;;;0.40;0.22;;;10.50;99.90;;;;;;5090975;28;20765;-72
2021/11/13 11:50:37;;;;;;;0.40;0.20;;;10.50;99.90;;;;;;5096513;28;20935;-72
2021/11/13 11:53:10;;;;;;;0.90;0.80;;;10.60;99.90;;;;;;5101022;28;20395;-73
2021/11/13 11:55:37;;;;;;;0.85;0.85;;;10.70;99.90;;;;;;5101696;28;20406;-72
2021/11/13 11:58:08;;;;;;;0.40;0.30;;;10.80;99.90;;;;;;5103376;28;20378;-73
2021/11/13 12:00:39;;;;;;;0.40;0.30;;;10.80;99.90;;;;;;5099970;28;20366;-72
2021/11/13 12:03:05;;;;;;;0.40;0.20;;;10.90;99.90;;;;;;5090872;28;21009;-73
2021/11/13 12:05:36;;;;;;;0.60;0.57;;;11.00;99.90;;;;;;5091747;28;20386;-71
2021/11/13 12:08:20;;;;;;;0.40;0.20;;;11.20;99.90;;;;;;5091125;28;20754;-71
2021/11/13 12:10:47;;;;;;;0.40;0.40;;;11.30;99.90;;;;;;5090661;28;20481;-70
2021/11/13 12:13:16;;;;;;;4.70;0.80;;;11.20;99.90;;;;;;5091111;28;20405;-72
2021/11/13 12:15:50;;;;;;;0.50;0.50;;;11.30;99.90;;;;;;5091673;28;20402;-72
2021/11/13 12:18:22;;;;;;;0.40;0.30;;;11.30;99.90;;;;;;5088049;28;20414;-72
2021/11/13 12:21:07;;;;;;;0.40;0.30;;;11.20;99.90;;;;;;5091372;28;20469;-71
2021/11/13 12:23:46;;;;;;;0.40;0.30;;;11.20;99.90;;;;;;5087990;28;20804;-71
2021/11/13 12:26:21;;;;;;;0.40;0.30;;;11.20;99.90;;;;;;5089974;28;20867;-73
2021/11/13 12:28:47;;;;;;;0.40;0.30;;;11.20;99.90;;;;;;5091849;28;20388;-72
2021/11/13 12:31:16;;;;;;;0.40;0.30;;;11.10;99.90;;;;;;5091062;28;20378;-72
2021/11/13 12:33:51;;;;;;;0.40;0.30;;;11.10;99.90;;;;;;5090319;28;20764;-72
2021/11/13 12:36:46;;;;;;;0.40;0.30;;;11.10;99.90;;;;;;5089591;28;20413;-71
2021/11/13 12:39:18;;;;;;;0.40;0.30;;;11.10;99.90;;;;;;5090893;28;20378;-73
2021/11/13 12:41:50;;;;;;;0.40;0.20;;;11.20;99.90;;;;;;5091376;28;20385;-71
2021/11/13 12:44:21;;;;;;;0.80;0.70;;;11.30;99.90;;;;;;5091123;28;20378;-72
2021/11/13 12:46:52;;;;;;;0.40;0.30;;;11.40;99.90;;;;;;5091048;28;20386;-71
2021/11/13 12:49:18;;;;;;;0.40;0.30;;;11.20;99.90;;;;;;5090991;28;20386;-72
2021/11/13 12:51:53;;;;;;;0.40;0.40;;;11.20;99.90;;;;;;5091019;28;20459;-73
2021/11/13 12:54:28;;;;;;;0.40;0.30;;;11.20;99.90;;;;;;5090415;28;20390;-72
2021/11/13 12:57:03;;;;;;;0.40;0.20;;;11.30;99.90;;;;;;5089755;28;20509;-71
2021/11/13 12:59:31;;;;;;;0.80;0.80;;;11.10;99.90;;;;;;5090394;28;20909;-71
2021/11/13 13:02:00;;;;;;;0.40;0.20;;;11.20;99.90;;;;;;5091137;28;20385;-72